Time;durP1;ratioP1;P1;durP2;ratioP2;P2;SDS_P1;SDS_P2;PMS_P1;PMS_P2;Temp;Humidity;BMP_temperature;BMP_pressure;BME280_temperature;BME280_humidity;BME280_pressure;Samples;Min_cycle;Max_cycle;Signal;HPM_P1;HPM_P2
2021/12/28 00:02:05;;;;;;;45.13;15.83;;;-6.90;96.80;;;;;;5108041;28;20528;-61
2021/12/28 00:04:34;;;;;;;50.00;17.63;;;-6.90;96.80;;;;;;5092140;28;20926;-61
2021/12/28 00:07:01;;;;;;;59.73;20.00;;;-6.90;96.80;;;;;;5106247;28;20429;-61
2021/12/28 00:09:28;;;;;;;53.13;16.83;;;-6.90;96.80;;;;;;5101812;28;20441;-61
2021/12/28 00:11:55;;;;;;;50.77;17.63;;;-6.90;96.70;;;;;;5084498;28;20481;-62
2021/12/28 00:14:29;;;;;;;49.50;16.57;;;-6.90;96.70;;;;;;5086739;28;20477;-62
2021/12/28 00:19:42;;;;;;;69.40;21.73;;;-7.00;96.50;;;;;;5110737;28;20424;-60
2021/12/28 00:22:09;;;;;;;58.20;18.97;;;-7.00;96.50;;;;;;5103762;28;20433;-61
2021/12/28 00:24:36;;;;;;;44.90;14.90;;;-7.00;96.50;;;;;;5084248;28;20493;-61
2021/12/28 00:27:05;;;;;;;46.50;14.67;;;-7.10;96.50;;;;;;5108177;28;20508;-61
2021/12/28 00:29:32;;;;;;;68.03;20.47;;;-7.10;96.50;;;;;;5091560;28;20457;-61
2021/12/28 00:31:59;;;;;;;47.27;16.63;;;-7.10;96.50;;;;;;5103533;28;20474;-61
2021/12/28 00:34:27;;;;;;;46.13;15.73;;;-7.10;96.60;;;;;;5110618;28;20294;-61
2021/12/28 00:36:55;;;;;;;52.03;16.80;;;-7.10;96.50;;;;;;5103855;28;20438;-61
2021/12/28 00:39:22;;;;;;;65.13;19.47;;;-6.20;96.90;;;;;;5112012;27;20647;-61
2021/12/28 00:41:49;;;;;;;50.57;16.97;;;-7.20;96.50;;;;;;5100035;28;20458;-61
2021/12/28 00:44:16;;;;;;;78.97;24.63;;;-6.90;96.60;;;;;;5110360;28;20432;-61
2021/12/28 00:46:43;;;;;;;88.63;24.97;;;-7.10;96.40;;;;;;5101736;28;20442;-61
2021/12/28 00:49:10;;;;;;;78.20;23.27;;;-7.10;96.10;;;;;;5084596;28;20450;-61
2021/12/28 00:51:38;;;;;;;65.77;21.83;;;-7.10;96.10;;;;;;5097787;28;20478;-61
2021/12/28 00:54:06;;;;;;;76.87;24.43;;;-6.60;96.30;;;;;;5106617;28;20774;-61
2021/12/28 00:56:33;;;;;;;65.00;19.10;;;-7.10;96.20;;;;;;5104664;28;20433;-62
2021/12/28 00:59:00;;;;;;;53.90;17.97;;;-7.30;96.20;;;;;;5103350;28;20549;-62
2021/12/28 01:01:27;;;;;;;57.30;17.67;;;-7.30;96.20;;;;;;5080604;28;20454;-61
2021/12/28 01:03:54;;;;;;;58.90;18.30;;;-6.80;96.50;;;;;;5103498;28;20439;-62
2021/12/28 01:06:22;;;;;;;43.20;14.40;;;-7.30;96.40;;;;;;5099981;28;20468;-63
2021/12/28 01:08:49;;;;;;;77.53;23.30;;;-7.30;96.40;;;;;;5109635;28;20445;-62
2021/12/28 01:11:17;;;;;;;48.13;16.63;;;-6.90;96.60;;;;;;5106717;28;20433;-62
2021/12/28 01:13:44;;;;;;;57.90;19.23;;;-7.20;96.50;;;;;;5106493;28;20426;-61
2021/12/28 01:16:13;;;;;;;64.57;20.67;;;-6.80;96.70;;;;;;5107606;28;20509;-62
2021/12/28 01:18:41;;;;;;;49.43;17.40;;;-7.20;96.40;;;;;;5105274;28;20438;-62
2021/12/28 01:21:09;;;;;;;50.97;15.27;;;-7.20;96.40;;;;;;5099482;28;20492;-62
2021/12/28 01:23:36;;;;;;;43.07;14.07;;;-7.20;96.40;;;;;;5103339;28;20821;-61
2021/12/28 01:26:04;;;;;;;52.67;16.90;;;-7.20;96.40;;;;;;5105004;28;20485;-62
2021/12/28 01:28:33;;;;;;;48.27;15.20;;;-7.20;96.40;;;;;;5106434;28;20441;-62
2021/12/28 01:31:00;;;;;;;63.50;19.70;;;-7.30;96.40;;;;;;5104549;28;20548;-61
2021/12/28 01:33:27;;;;;;;102.40;28.83;;;-7.20;96.50;;;;;;5093140;28;20953;-62
2021/12/28 01:35:54;;;;;;;67.90;22.90;;;-7.20;96.40;;;;;;5100791;28;20893;-62
2021/12/28 01:38:21;;;;;;;63.43;19.43;;;-6.90;96.50;;;;;;5100509;28;20434;-62
2021/12/28 01:40:48;;;;;;;48.33;16.13;;;-7.00;96.50;;;;;;5102657;28;20522;-62
2021/12/28 01:43:19;;;;;;;53.30;16.53;;;-7.20;96.40;;;;;;5097956;28;20837;-63
2021/12/28 01:45:52;;;;;;;42.00;13.90;;;-7.20;96.40;;;;;;5102579;28;20931;-62
2021/12/28 01:48:22;;;;;;;38.07;12.37;;;-7.00;96.60;;;;;;5098211;28;20930;-62
2021/12/28 01:50:52;;;;;;;38.57;14.20;;;-7.20;96.50;;;;;;5097964;28;20754;-62
2021/12/28 01:53:21;;;;;;;34.23;12.53;;;-6.60;96.80;;;;;;5102419;28;20595;-62
2021/12/28 01:55:50;;;;;;;32.17;10.33;;;-6.50;96.80;;;;;;5096753;28;21009;-62
2021/12/28 01:58:17;;;;;;;30.10;10.33;;;-7.10;96.50;;;;;;5097461;28;20430;-62
2021/12/28 02:00:46;;;;;;;23.63;8.70;;;-7.10;96.50;;;;;;5083547;28;20514;-62
2021/12/28 02:03:17;;;;;;;26.23;9.10;;;-7.00;96.60;;;;;;5100400;28;20450;-62
2021/12/28 02:05:45;;;;;;;25.53;9.33;;;-6.80;96.60;;;;;;5095744;28;20893;-62
2021/12/28 02:08:14;;;;;;;24.07;9.50;;;-7.00;96.50;;;;;;5108755;28;20445;-62
2021/12/28 02:10:43;;;;;;;27.97;9.90;;;-7.10;96.40;;;;;;5106744;28;20643;-62
2021/12/28 02:13:13;;;;;;;37.10;11.80;;;-7.10;96.50;;;;;;5112511;28;20964;-62
2021/12/28 02:15:40;;;;;;;29.07;11.13;;;-6.70;96.70;;;;;;5082961;28;20995;-62
2021/12/28 02:18:10;;;;;;;28.10;10.00;;;-6.90;96.60;;;;;;5111732;28;20490;-62
2021/12/28 02:20:40;;;;;;;28.90;9.60;;;-7.10;96.50;;;;;;5109537;28;20463;-62
2021/12/28 02:23:08;;;;;;;38.10;12.83;;;-7.20;96.50;;;;;;5111632;28;20457;-62
2021/12/28 02:25:36;;;;;;;36.33;13.40;;;-7.20;96.50;;;;;;5100020;28;20437;-61
2021/12/28 02:28:04;;;;;;;39.23;13.80;;;-7.20;96.50;;;;;;5110208;28;20499;-61
2021/12/28 02:30:32;;;;;;;34.10;11.70;;;-7.20;96.50;;;;;;5107990;28;20473;-62
2021/12/28 02:32:59;;;;;;;36.17;12.17;;;-6.70;96.80;;;;;;5112248;28;20461;-61
2021/12/28 02:35:27;;;;;;;44.43;13.30;;;-7.20;96.50;;;;;;5093073;28;20955;-61
2021/12/28 02:37:56;;;;;;;31.80;11.20;;;-7.20;96.50;;;;;;5105743;28;20433;-61
2021/12/28 02:40:25;;;;;;;37.87;12.33;;;-7.30;96.40;;;;;;5105318;28;20426;-62
2021/12/28 02:42:54;;;;;;;48.07;16.53;;;-7.20;96.50;;;;;;5101136;28;20489;-62
2021/12/28 02:45:25;;;;;;;49.27;14.40;;;-7.30;96.30;;;;;;5074705;28;20465;-61
2021/12/28 02:47:52;;;;;;;48.10;14.87;;;-7.20;96.40;;;;;;5103020;28;20453;-61
2021/12/28 02:50:24;;;;;;;57.37;15.73;;;-7.40;96.30;;;;;;5106374;28;20888;-61
2021/12/28 02:52:51;;;;;;;39.63;13.80;;;-7.30;96.40;;;;;;5089208;28;20553;-61
2021/12/28 02:55:24;;;;;;;69.67;19.17;;;-7.40;96.40;;;;;;5111178;28;20836;-61
2021/12/28 02:57:53;;;;;;;41.47;12.93;;;-7.40;96.50;;;;;;5099557;28;20437;-61
2021/12/28 03:00:32;;;;;;;36.00;13.17;;;-7.40;96.40;;;;;;5107480;28;20552;-61
2021/12/28 03:03:00;;;;;;;33.47;11.73;;;-7.40;96.50;;;;;;5092820;28;20423;-61
2021/12/28 03:05:27;;;;;;;28.13;11.53;;;-7.30;96.50;;;;;;5095072;28;20445;-61
2021/12/28 03:07:54;;;;;;;44.23;13.83;;;-7.40;96.50;;;;;;5094358;28;20978;-61
2021/12/28 03:10:23;;;;;;;37.83;12.40;;;-7.40;96.50;;;;;;5103696;28;20465;-62
2021/12/28 03:12:50;;;;;;;26.20;9.97;;;-7.40;96.50;;;;;;5093113;28;20465;-61
2021/12/28 03:15:17;;;;;;;33.90;12.70;;;-6.90;96.70;;;;;;5102426;28;20442;-61
2021/12/28 03:17:45;;;;;;;47.23;15.53;;;-7.40;96.50;;;;;;5110038;28;20792;-62
2021/12/28 03:20:13;;;;;;;34.80;12.10;;;-6.70;96.80;;;;;;5107564;28;20517;-61
2021/12/28 03:22:41;;;;;;;41.77;14.50;;;-7.40;96.40;;;;;;5108905;28;20457;-61
2021/12/28 03:25:09;;;;;;;39.40;13.53;;;-7.40;96.30;;;;;;5089298;28;20873;-61
2021/12/28 03:27:38;;;;;;;43.63;13.80;;;-7.40;96.40;;;;;;5106657;28;20430;-62
2021/12/28 03:30:09;;;;;;;39.63;12.03;;;-7.50;96.50;;;;;;5084422;28;20779;-61
2021/12/28 03:32:36;;;;;;;31.03;11.37;;;-7.40;96.50;;;;;;5106653;28;20529;-61
2021/12/28 03:35:05;;;;;;;32.93;11.23;;;-7.20;96.60;;;;;;5082480;28;20450;-62
2021/12/28 03:37:32;;;;;;;51.37;15.47;;;-7.50;96.50;;;;;;5102115;28;20434;-61
2021/12/28 03:40:01;;;;;;;43.83;14.73;;;-7.50;96.50;;;;;;5099275;28;20461;-61
2021/12/28 03:42:28;;;;;;;40.67;12.93;;;-7.50;96.40;;;;;;5104074;28;20490;-62
2021/12/28 03:44:57;;;;;;;34.90;12.43;;;-7.40;96.40;;;;;;5098013;28;20434;-61
2021/12/28 03:47:24;;;;;;;32.53;11.43;;;-7.50;96.40;;;;;;5096102;28;20928;-62
2021/12/28 03:49:51;;;;;;;40.93;12.43;;;-7.50;96.50;;;;;;5097952;28;20445;-62
2021/12/28 03:52:18;;;;;;;30.23;11.37;;;-6.90;96.70;;;;;;5100249;28;20556;-62
2021/12/28 03:54:45;;;;;;;36.67;12.13;;;-7.60;96.30;;;;;;5107983;28;20437;-62
2021/12/28 03:57:12;;;;;;;42.50;13.63;;;-7.70;96.30;;;;;;5100002;28;20869;-62
2021/12/28 03:59:40;;;;;;;41.83;13.50;;;-7.70;96.50;;;;;;5097090;28;20441;-62
2021/12/28 04:02:08;;;;;;;48.57;15.13;;;-7.80;96.40;;;;;;5094299;28;20928;-62
2021/12/28 04:04:35;;;;;;;53.93;16.33;;;-7.80;96.30;;;;;;5073851;28;20805;-63
2021/12/28 04:07:05;;;;;;;43.57;14.63;;;-7.90;96.20;;;;;;5106170;28;20486;-62
2021/12/28 04:12:13;;;;;;;40.73;13.03;;;-7.90;96.30;;;;;;5105781;28;20429;-61
2021/12/28 04:14:40;;;;;;;36.17;12.20;;;-7.90;96.30;;;;;;5108324;28;20433;-61
2021/12/28 04:17:09;;;;;;;60.97;17.23;;;-7.80;96.30;;;;;;5103477;28;20490;-64
2021/12/28 04:19:36;;;;;;;38.93;13.03;;;-7.90;96.30;;;;;;5108735;28;20425;-61
2021/12/28 04:22:03;;;;;;;32.83;11.83;;;-7.80;96.30;;;;;;5086152;28;21034;-62
2021/12/28 04:24:31;;;;;;;44.83;15.10;;;-7.80;96.30;;;;;;5091048;28;20449;-62
2021/12/28 04:26:58;;;;;;;45.43;15.17;;;-6.80;96.70;;;;;;5106400;28;20442;-62
2021/12/28 04:29:25;;;;;;;44.67;14.23;;;-7.60;96.20;;;;;;5105293;28;20429;-62
2021/12/28 04:31:52;;;;;;;48.43;14.30;;;-7.70;96.10;;;;;;5101157;28;20499;-62
2021/12/28 04:34:21;;;;;;;46.43;14.67;;;-7.60;96.20;;;;;;5101008;28;20541;-62
2021/12/28 04:36:49;;;;;;;42.87;13.20;;;-7.70;96.20;;;;;;5104954;28;20446;-62
2021/12/28 04:39:17;;;;;;;39.70;12.80;;;-7.70;96.20;;;;;;5100587;28;20453;-62
2021/12/28 04:41:44;;;;;;;46.40;15.70;;;-7.70;96.20;;;;;;5099425;28;20503;-62
2021/12/28 04:44:13;;;;;;;50.63;17.60;;;-7.60;96.20;;;;;;5099516;28;20525;-62
2021/12/28 04:46:41;;;;;;;52.83;16.67;;;-6.60;96.60;;;;;;5099484;28;20961;-62
2021/12/28 04:49:08;;;;;;;38.40;13.47;;;-7.60;96.00;;;;;;5102530;28;20749;-62
2021/12/28 04:51:36;;;;;;;41.43;13.73;;;-7.70;96.00;;;;;;5100864;28;20442;-61
2021/12/28 04:54:10;;;;;;;40.63;13.23;;;-6.90;96.40;;;;;;5077666;28;20519;-61
2021/12/28 04:56:37;;;;;;;34.53;11.93;;;-7.30;96.20;;;;;;5081562;28;20569;-62
2021/12/28 04:59:05;;;;;;;33.93;11.20;;;-7.60;96.10;;;;;;5096743;28;20434;-62
2021/12/28 05:01:32;;;;;;;38.07;11.27;;;-6.70;96.50;;;;;;5103073;28;20507;-61
2021/12/28 05:03:59;;;;;;;31.67;10.70;;;-7.60;96.10;;;;;;5103563;28;20516;-61
2021/12/28 05:06:27;;;;;;;30.17;9.80;;;-7.60;96.10;;;;;;5096552;28;20806;-61
2021/12/28 05:08:55;;;;;;;42.07;12.60;;;-7.60;96.10;;;;;;5114703;28;20467;-61
2021/12/28 05:11:22;;;;;;;40.17;12.47;;;-7.00;96.50;;;;;;5096079;28;20490;-60
2021/12/28 05:13:50;;;;;;;38.33;12.50;;;-7.00;96.50;;;;;;5109490;28;20571;-62
2021/12/28 05:16:17;;;;;;;38.90;12.57;;;-7.60;96.00;;;;;;5097576;28;20520;-61
2021/12/28 05:18:44;;;;;;;48.00;14.97;;;-7.80;95.90;;;;;;5105865;28;20502;-63
2021/12/28 05:21:12;;;;;;;53.90;13.97;;;-7.40;96.20;;;;;;5095817;28;20436;-62
2021/12/28 05:23:39;;;;;;;43.87;14.00;;;-7.80;96.10;;;;;;5106445;28;20487;-62
2021/12/28 05:26:07;;;;;;;48.70;14.87;;;-7.80;96.20;;;;;;5085587;28;20540;-61
2021/12/28 05:28:34;;;;;;;36.90;12.40;;;-7.70;96.30;;;;;;5105610;28;20502;-62
2021/12/28 05:31:01;;;;;;;40.37;12.60;;;-7.70;96.30;;;;;;5079840;28;20811;-62
2021/12/28 05:33:28;;;;;;;44.63;13.13;;;-7.70;96.30;;;;;;5103976;28;20559;-62
2021/12/28 05:35:55;;;;;;;34.13;11.30;;;-7.70;96.20;;;;;;5084451;28;20540;-62
2021/12/28 05:38:23;;;;;;;39.70;12.77;;;-7.80;96.30;;;;;;5099047;28;20491;-62
2021/12/28 05:40:50;;;;;;;32.43;11.40;;;-6.60;96.90;;;;;;5101364;28;20452;-62
2021/12/28 05:43:18;;;;;;;39.70;12.23;;;-7.60;96.60;;;;;;5101261;28;20425;-62
2021/12/28 05:45:46;;;;;;;53.30;15.03;;;-7.80;96.60;;;;;;5099410;28;20478;-62
2021/12/28 05:48:14;;;;;;;45.17;12.73;;;-7.90;96.60;;;;;;5103393;28;20441;-62
2021/12/28 05:50:41;;;;;;;39.40;14.03;;;-7.70;96.80;;;;;;5100438;28;20834;-61
2021/12/28 05:53:08;;;;;;;34.57;11.70;;;-7.60;96.90;;;;;;5081036;28;20474;-61
2021/12/28 05:55:35;;;;;;;40.67;12.97;;;-7.50;96.90;;;;;;5100319;28;20445;-62
2021/12/28 05:58:02;;;;;;;46.33;14.43;;;-7.00;97.10;;;;;;5089160;28;20453;-60
2021/12/28 06:00:31;;;;;;;51.13;15.50;;;-7.30;96.80;;;;;;5105281;28;20502;-61
2021/12/28 06:02:59;;;;;;;50.47;16.20;;;-7.10;96.90;;;;;;5112873;28;20425;-61
2021/12/28 06:05:27;;;;;;;58.17;16.03;;;-7.20;96.80;;;;;;5112619;28;20465;-61
2021/12/28 06:07:54;;;;;;;42.83;13.90;;;-6.90;96.90;;;;;;5097587;28;20438;-61
2021/12/28 06:10:21;;;;;;;35.30;12.23;;;-6.50;97.00;;;;;;5094241;28;20445;-61
2021/12/28 06:12:49;;;;;;;39.83;13.40;;;-6.70;97.00;;;;;;5091254;28;20808;-61
2021/12/28 06:15:17;;;;;;;38.37;12.47;;;-6.50;96.90;;;;;;5110582;28;20427;-62
2021/12/28 06:17:45;;;;;;;55.23;16.00;;;-7.10;96.60;;;;;;5077027;28;20860;-62
2021/12/28 06:20:13;;;;;;;42.57;13.33;;;-7.10;96.80;;;;;;5095284;28;20442;-61
2021/12/28 06:22:40;;;;;;;39.77;13.40;;;-6.50;97.20;;;;;;5100638;28;20518;-61
2021/12/28 06:25:08;;;;;;;29.93;10.70;;;-6.90;97.10;;;;;;5110464;28;20511;-62
2021/12/28 06:27:35;;;;;;;29.87;11.03;;;-6.40;97.40;;;;;;5105317;28;20430;-61
2021/12/28 06:30:02;;;;;;;26.93;9.63;;;-8.60;96.50;;;;;;5106553;28;20837;-61
2021/12/28 06:32:29;;;;;;;26.37;9.37;;;-7.00;97.20;;;;;;5087491;28;20453;-62
2021/12/28 06:34:58;;;;;;;29.80;8.90;;;-6.30;97.50;;;;;;5110097;28;20469;-62
2021/12/28 06:37:25;;;;;;;28.33;10.30;;;-6.80;97.40;;;;;;5099751;28;20446;-62
2021/12/28 06:39:52;;;;;;;25.43;9.53;;;-6.80;97.40;;;;;;5107722;28;20560;-62
2021/12/28 06:42:19;;;;;;;32.73;9.97;;;-6.70;97.40;;;;;;5108715;28;20430;-61
2021/12/28 06:44:47;;;;;;;24.47;8.23;;;-6.00;97.70;;;;;;5096063;27;20514;-62
2021/12/28 06:47:14;;;;;;;35.33;11.57;;;-6.20;97.70;;;;;;5096196;28;20533;-62
2021/12/28 06:49:42;;;;;;;29.17;10.73;;;-6.60;97.60;;;;;;5093928;28;20511;-62
2021/12/28 06:52:10;;;;;;;27.53;10.00;;;-6.60;97.80;;;;;;5101106;28;20513;-62
2021/12/28 06:54:39;;;;;;;21.50;8.27;;;-6.50;97.80;;;;;;5094902;28;20461;-62
2021/12/28 06:57:07;;;;;;;25.93;9.43;;;-6.50;97.90;;;;;;5084706;28;20437;-63
2021/12/28 06:59:35;;;;;;;25.10;8.67;;;-6.50;98.00;;;;;;5104845;28;21293;-63
2021/12/28 07:02:02;;;;;;;26.37;9.07;;;-6.50;98.10;;;;;;5101481;28;20431;-61
2021/12/28 07:04:30;;;;;;;31.83;9.70;;;-6.50;98.20;;;;;;5097100;28;20668;-62
2021/12/28 07:06:57;;;;;;;23.77;8.50;;;-6.20;98.50;;;;;;5101287;28;20236;-62
2021/12/28 07:09:25;;;;;;;26.93;8.90;;;-6.50;98.50;;;;;;5094044;28;20812;-62
2021/12/28 07:11:52;;;;;;;22.17;8.93;;;-6.40;99.00;;;;;;5110199;28;20196;-62
2021/12/28 07:14:20;;;;;;;19.03;8.10;;;-6.40;98.80;;;;;;5091380;28;20470;-62
2021/12/28 07:16:47;;;;;;;18.43;7.20;;;-6.40;98.80;;;;;;5102677;28;20528;-61
2021/12/28 07:19:14;;;;;;;24.10;7.33;;;-6.30;99.00;;;;;;5107099;28;20438;-63
2021/12/28 07:21:42;;;;;;;22.70;8.57;;;-6.20;99.20;;;;;;5092992;28;20512;-62
2021/12/28 07:24:10;;;;;;;25.97;8.57;;;-5.50;99.60;;;;;;5107195;28;20223;-62
2021/12/28 07:26:39;;;;;;;36.67;12.10;;;-6.10;99.50;;;;;;5098543;28;21054;-62
2021/12/28 07:29:06;;;;;;;29.43;9.33;;;-6.10;99.90;;;;;;5106680;28;20191;-63
2021/12/28 07:31:34;;;;;;;38.27;12.20;;;-6.10;99.90;;;;;;5084368;28;20474;-61
2021/12/28 07:34:01;;;;;;;27.80;10.07;;;-6.00;99.90;;;;;;5107740;28;20204;-62
2021/12/28 07:36:28;;;;;;;35.00;11.13;;;-6.00;99.90;;;;;;5102360;28;20952;-61
2021/12/28 07:38:55;;;;;;;26.57;9.93;;;-6.00;99.90;;;;;;5107144;28;20516;-62
2021/12/28 07:41:23;;;;;;;38.97;12.33;;;-5.90;99.90;;;;;;5073452;28;20208;-62
2021/12/28 07:43:52;;;;;;;34.47;11.93;;;-5.50;99.90;;;;;;5087765;28;20482;-62
2021/12/28 07:46:19;;;;;;;26.73;10.97;;;-5.90;99.90;;;;;;5110225;28;20597;-62
2021/12/28 07:48:46;;;;;;;23.93;9.30;;;-5.90;99.90;;;;;;5096795;28;20188;-62
2021/12/28 07:51:13;;;;;;;25.53;9.20;;;-5.90;99.90;;;;;;5106016;28;20207;-63
2021/12/28 07:53:40;;;;;;;35.23;11.63;;;-5.90;99.90;;;;;;5082904;28;20296;-62
2021/12/28 07:56:07;;;;;;;30.90;11.27;;;-5.90;99.90;;;;;;5080509;28;20201;-62
2021/12/28 07:58:34;;;;;;;31.73;10.77;;;-5.40;99.90;;;;;;5102103;28;20193;-62
2021/12/28 08:01:04;;;;;;;31.47;11.23;;;-5.70;99.90;;;;;;5103848;28;20536;-62
2021/12/28 08:03:31;;;;;;;32.47;11.87;;;-5.80;99.90;;;;;;5091357;28;20199;-62
2021/12/28 08:05:58;;;;;;;28.93;11.20;;;-5.40;99.90;;;;;;5108674;28;20203;-62
2021/12/28 08:08:25;;;;;;;28.87;11.93;;;-5.90;99.90;;;;;;5092142;28;20441;-61
2021/12/28 08:10:52;;;;;;;28.67;10.77;;;-5.40;99.90;;;;;;5079975;28;20203;-62
2021/12/28 08:13:21;;;;;;;30.00;11.87;;;-5.70;99.90;;;;;;5090892;28;20211;-62
2021/12/28 08:15:48;;;;;;;35.87;11.77;;;-5.70;99.90;;;;;;5111478;27;20661;-62
2021/12/28 08:18:17;;;;;;;39.03;12.93;;;-5.80;99.90;;;;;;5100920;28;20648;-62
2021/12/28 08:20:44;;;;;;;28.27;11.13;;;-5.70;99.90;;;;;;5109974;28;20263;-62
2021/12/28 08:23:11;;;;;;;42.87;13.23;;;-5.70;99.90;;;;;;5110897;28;20656;-62
2021/12/28 08:25:38;;;;;;;29.47;11.80;;;-5.70;99.90;;;;;;5090041;28;20199;-62
2021/12/28 08:28:06;;;;;;;32.53;12.43;;;-5.60;99.90;;;;;;5098373;28;20248;-62
2021/12/28 08:30:35;;;;;;;27.60;11.03;;;-5.60;99.90;;;;;;5109231;28;20235;-62
2021/12/28 08:33:03;;;;;;;26.77;10.37;;;-5.50;99.90;;;;;;5098253;28;20199;-61
2021/12/28 08:35:32;;;;;;;31.50;10.80;;;-5.70;99.90;;;;;;5106695;28;20257;-61
2021/12/28 08:37:59;;;;;;;28.37;10.67;;;-5.70;99.90;;;;;;5110205;28;20191;-60
2021/12/28 08:40:27;;;;;;;33.33;11.87;;;-5.60;99.90;;;;;;5104912;28;20211;-61
2021/12/28 08:42:54;;;;;;;35.30;11.97;;;-5.60;99.90;;;;;;5110467;28;20199;-62
2021/12/28 08:45:21;;;;;;;28.97;10.50;;;-5.30;99.90;;;;;;5089892;28;20410;-62
2021/12/28 08:47:50;;;;;;;29.43;10.03;;;-5.50;99.90;;;;;;5105230;28;20753;-62
2021/12/28 08:50:18;;;;;;;26.00;9.23;;;-5.40;99.90;;;;;;5099881;28;20192;-62
2021/12/28 08:52:47;;;;;;;36.80;11.93;;;-5.30;99.90;;;;;;5095264;28;20265;-62
2021/12/28 08:55:15;;;;;;;36.67;12.93;;;-5.30;99.90;;;;;;5097633;28;20591;-62
2021/12/28 08:57:42;;;;;;;37.27;13.30;;;-5.20;99.90;;;;;;5082498;28;20191;-63
2021/12/28 09:00:12;;;;;;;37.87;13.80;;;-5.20;99.90;;;;;;5103609;28;20295;-62
2021/12/28 09:02:39;;;;;;;34.50;13.43;;;-5.10;99.90;;;;;;5106021;28;20199;-60
2021/12/28 09:05:07;;;;;;;38.50;13.47;;;-5.10;99.90;;;;;;5102799;28;20220;-61
2021/12/28 09:07:34;;;;;;;34.17;12.80;;;-5.10;99.90;;;;;;5104226;28;20291;-61
2021/12/28 09:10:04;;;;;;;33.50;13.37;;;-5.00;99.90;;;;;;5098318;28;20559;-61
2021/12/28 09:12:31;;;;;;;36.20;14.47;;;-5.00;99.90;;;;;;5108581;28;20208;-63
2021/12/28 09:14:58;;;;;;;42.17;15.17;;;-4.90;99.90;;;;;;5109484;28;20265;-62
2021/12/28 09:17:25;;;;;;;32.20;12.27;;;-4.80;99.90;;;;;;5107605;28;20651;-61
2021/12/28 09:19:52;;;;;;;45.93;17.13;;;-4.80;99.90;;;;;;5103320;28;20265;-62
2021/12/28 09:22:19;;;;;;;37.63;14.90;;;-4.80;99.90;;;;;;5107041;28;20196;-62
2021/12/28 09:24:47;;;;;;;34.53;13.83;;;-4.70;99.90;;;;;;5111860;28;20237;-62
2021/12/28 09:27:15;;;;;;;43.63;14.40;;;-4.70;99.90;;;;;;5112257;28;20283;-62
2021/12/28 09:29:43;;;;;;;32.57;11.90;;;-4.70;99.90;;;;;;5107847;28;20188;-62
2021/12/28 09:32:11;;;;;;;29.57;11.40;;;-4.70;99.90;;;;;;5092739;28;20520;-62
2021/12/28 09:34:38;;;;;;;25.80;9.53;;;-4.70;99.90;;;;;;5109221;28;20237;-62
2021/12/28 09:37:05;;;;;;;28.90;11.37;;;-4.60;99.90;;;;;;5113447;28;20187;-62
2021/12/28 09:39:32;;;;;;;26.77;10.13;;;-4.60;99.90;;;;;;5109348;28;20310;-62
2021/12/28 09:42:03;;;;;;;34.27;11.93;;;-4.60;99.90;;;;;;5107435;28;20200;-63
2021/12/28 09:44:34;;;;;;;33.87;13.10;;;-4.50;99.90;;;;;;5106817;28;20215;-61
2021/12/28 09:47:02;;;;;;;28.63;12.00;;;-4.50;99.90;;;;;;5107638;28;20189;-61
2021/12/28 09:49:29;;;;;;;35.40;12.53;;;-4.50;99.90;;;;;;5085529;28;20200;-62
2021/12/28 09:51:57;;;;;;;30.03;12.33;;;-4.50;99.90;;;;;;5105295;27;20199;-61
2021/12/28 09:54:25;;;;;;;34.83;13.17;;;-4.50;99.90;;;;;;5107616;28;20203;-61
2021/12/28 09:56:53;;;;;;;44.20;14.50;;;-4.50;99.90;;;;;;5091328;28;20203;-62
2021/12/28 09:59:20;;;;;;;37.43;13.43;;;-4.50;99.90;;;;;;5104660;28;20223;-62
2021/12/28 10:01:49;;;;;;;34.10;14.27;;;-4.40;99.90;;;;;;5099559;28;20183;-63
2021/12/28 10:04:18;;;;;;;31.10;13.30;;;-4.30;99.90;;;;;;5109364;28;20196;-62
2021/12/28 10:06:45;;;;;;;35.83;12.90;;;-4.40;99.90;;;;;;5109042;28;20203;-62
2021/12/28 10:09:17;;;;;;;35.70;13.27;;;-4.40;99.90;;;;;;5113027;28;20214;-62
2021/12/28 10:11:48;;;;;;;40.23;14.83;;;-4.40;99.90;;;;;;5091660;28;20215;-62
2021/12/28 10:14:18;;;;;;;39.37;14.10;;;-4.40;99.90;;;;;;5092623;28;20560;-60
2021/12/28 10:16:52;;;;;;;39.50;15.53;;;-4.30;99.90;;;;;;5109838;28;20210;-61
2021/12/28 10:19:34;;;;;;;41.00;15.17;;;-4.30;99.90;;;;;;5109097;28;20547;-62
2021/12/28 10:22:30;;;;;;;37.43;14.80;;;-4.30;99.90;;;;;;5078209;28;20201;-61
2021/12/28 10:24:59;;;;;;;35.67;14.17;;;-4.30;99.90;;;;;;5102892;28;20217;-61
2021/12/28 10:27:28;;;;;;;43.47;16.70;;;-4.20;99.90;;;;;;5112222;27;20671;-61
2021/12/28 10:30:01;;;;;;;34.90;14.67;;;-3.80;99.90;;;;;;5097853;28;20189;-61
2021/12/28 10:32:30;;;;;;;36.30;13.80;;;-4.20;99.90;;;;;;5098006;28;20195;-60
2021/12/28 10:34:59;;;;;;;41.00;15.93;;;-4.20;99.90;;;;;;5107994;28;20200;-62
2021/12/28 10:37:29;;;;;;;44.00;16.53;;;-4.20;99.90;;;;;;5098682;28;20196;-62
2021/12/28 10:39:58;;;;;;;42.13;15.90;;;-4.20;99.90;;;;;;5105043;28;20291;-62
2021/12/28 10:42:41;;;;;;;36.77;14.70;;;-4.10;99.90;;;;;;5107514;28;20199;-62
2021/12/28 10:45:11;;;;;;;39.67;15.40;;;-4.10;99.90;;;;;;5112381;28;20184;-62
2021/12/28 10:47:40;;;;;;;38.07;15.87;;;-4.00;99.90;;;;;;5110014;28;20199;-62
2021/12/28 10:50:31;;;;;;;36.10;14.07;;;-4.00;99.90;;;;;;5093262;28;20646;-63
2021/12/28 10:53:13;;;;;;;46.37;15.90;;;-4.00;99.90;;;;;;5107680;28;20207;-62
2021/12/28 10:55:43;;;;;;;45.67;16.73;;;-4.00;99.90;;;;;;5103363;28;20222;-61
2021/12/28 10:58:19;;;;;;;53.63;20.23;;;-4.00;99.90;;;;;;5110010;28;20219;-61
2021/12/28 11:00:47;;;;;;;45.83;17.37;;;-3.90;99.90;;;;;;5106212;28;20199;-62
2021/12/28 11:03:35;;;;;;;44.20;15.77;;;-3.80;99.90;;;;;;5107212;28;20231;-62
2021/12/28 11:06:18;;;;;;;40.10;14.90;;;-3.80;99.90;;;;;;5105325;28;20187;-62
2021/12/28 11:08:48;;;;;;;40.63;15.37;;;-3.80;99.90;;;;;;5103102;28;20279;-62
2021/12/28 11:11:18;;;;;;;35.40;13.97;;;-3.70;99.90;;;;;;5092584;28;20210;-62
2021/12/28 11:13:46;;;;;;;40.57;15.83;;;-3.80;99.90;;;;;;5102715;28;20195;-61
2021/12/28 11:16:15;;;;;;;43.40;15.97;;;-3.70;99.90;;;;;;5110148;27;20201;-62
2021/12/28 11:18:46;;;;;;;45.07;17.03;;;-3.70;99.90;;;;;;5094469;28;20188;-60
2021/12/28 11:21:17;;;;;;;44.97;17.33;;;-3.70;99.90;;;;;;5084939;28;20215;-63
2021/12/28 11:23:47;;;;;;;34.07;14.27;;;-3.70;99.90;;;;;;5111710;28;20338;-62
2021/12/28 11:26:21;;;;;;;41.47;15.27;;;-3.70;99.90;;;;;;5107507;28;20653;-63
2021/12/28 11:29:00;;;;;;;36.57;15.17;;;-3.70;99.90;;;;;;5084424;28;20678;-62
2021/12/28 11:31:33;;;;;;;41.70;15.80;;;-3.70;99.90;;;;;;5092459;28;20214;-62
2021/12/28 11:34:07;;;;;;;37.53;15.53;;;-3.70;99.90;;;;;;5109620;28;20188;-63
2021/12/28 11:36:37;;;;;;;42.50;17.23;;;-3.70;99.90;;;;;;5103906;28;20209;-63
2021/12/28 11:39:07;;;;;;;48.37;17.87;;;-3.70;99.90;;;;;;5088846;28;20199;-62
2021/12/28 11:41:35;;;;;;;44.70;17.93;;;-3.60;99.90;;;;;;5085229;28;20670;-62
2021/12/28 11:44:02;;;;;;;41.90;16.90;;;-3.60;99.90;;;;;;5106262;28;20192;-62
2021/12/28 11:46:30;;;;;;;43.50;16.93;;;-3.60;99.90;;;;;;5104057;28;20187;-62
2021/12/28 11:49:01;;;;;;;44.53;16.73;;;-3.60;99.90;;;;;;5105481;28;20203;-62
2021/12/28 11:51:29;;;;;;;44.87;16.53;;;-3.60;99.90;;;;;;5106718;28;20200;-62
2021/12/28 11:53:58;;;;;;;45.53;16.77;;;-3.60;99.90;;;;;;5103411;28;20558;-62
2021/12/28 11:56:29;;;;;;;38.93;15.03;;;-3.50;99.90;;;;;;5102844;28;20739;-62
2021/12/28 11:59:07;;;;;;;31.17;13.50;;;-3.50;99.90;;;;;;5091119;28;20575;-62
2021/12/28 12:01:42;;;;;;;32.67;13.40;;;-3.40;99.90;;;;;;5105738;28;20192;-62
2021/12/28 12:04:43;;;;;;;34.90;13.70;;;-3.40;99.90;;;;;;5095263;28;20547;-62
2021/12/28 12:07:19;;;;;;;36.83;15.13;;;-3.40;99.90;;;;;;5083854;28;20248;-62
2021/12/28 12:10:33;;;;;;;38.00;15.23;;;-3.40;99.90;;;;;;5092781;28;20211;-62
2021/12/28 12:13:29;;;;;;;36.03;14.47;;;-3.50;99.90;;;;;;5092174;28;20664;-62
2021/12/28 12:15:59;;;;;;;35.40;14.70;;;-3.50;99.90;;;;;;5109563;28;20210;-62
2021/12/28 12:18:30;;;;;;;47.83;17.37;;;-3.50;99.90;;;;;;5110059;28;20227;-63
2021/12/28 12:21:01;;;;;;;43.40;17.70;;;-3.40;99.90;;;;;;5088438;28;20268;-62
2021/12/28 12:23:40;;;;;;;38.27;14.80;;;-3.30;99.90;;;;;;5101817;28;20706;-61
2021/12/28 12:26:10;;;;;;;32.03;14.27;;;-3.30;99.90;;;;;;5102576;28;20190;-61
2021/12/28 12:28:48;;;;;;;37.83;16.30;;;-3.40;99.90;;;;;;5092859;28;20302;-62
2021/12/28 12:31:25;;;;;;;41.00;16.47;;;-3.30;99.90;;;;;;5096037;28;20274;-62
2021/12/28 12:33:52;;;;;;;42.73;16.93;;;-3.40;99.90;;;;;;5107822;28;20187;-62
2021/12/28 12:36:23;;;;;;;45.33;19.20;;;-3.40;99.90;;;;;;5109867;28;20204;-62
2021/12/28 12:38:54;;;;;;;41.63;16.90;;;-3.30;99.90;;;;;;5107533;28;20204;-62
2021/12/28 12:41:25;;;;;;;42.63;17.13;;;-3.40;99.90;;;;;;5080424;28;20724;-62
2021/12/28 12:43:56;;;;;;;40.10;16.77;;;-3.40;99.90;;;;;;5104846;28;20189;-62